Time;durP1;ratioP1;P1;durP2;ratioP2;P2;SDS_P1;SDS_P2;PMS_P1;PMS_P2;Temp;Humidity;BMP_temperature;BMP_pressure;BME280_temperature;BME280_humidity;BME280_pressure;Samples;Min_cycle;Max_cycle;Signal;HPM_P1;HPM_P2
2021/04/24 00:00:21;;;;;;;25.52;13.52;;;103.30;2227.20;;;;;;5073365;28;20032;-68
2021/04/24 00:02:47;;;;;;;27.05;13.40;;;103.30;2227.20;;;;;;5073474;28;20503;-69
2021/04/24 00:05:23;;;;;;;27.45;13.43;;;103.20;2227.20;;;;;;5073334;28;20102;-69
2021/04/24 00:07:52;;;;;;;20.70;12.85;;;103.30;2227.20;;;;;;5072599;28;20028;-69
2021/04/24 00:10:19;;;;;;;23.60;13.05;;;103.30;2227.20;;;;;;5073463;28;20033;-68
2021/04/24 00:12:45;;;;;;;25.27;13.55;;;103.30;2227.20;;;;;;5082717;28;20108;-68
2021/04/24 00:15:13;;;;;;;24.17;12.85;;;103.30;2227.20;;;;;;5076638;28;20170;-69
2021/04/24 00:17:39;;;;;;;26.85;12.85;;;103.30;2227.20;;;;;;5057297;28;20050;-68
2021/04/24 00:20:10;;;;;;;23.50;13.20;;;103.30;2227.20;;;;;;5073179;28;20024;-67
2021/04/24 00:22:37;;;;;;;27.38;14.30;;;103.30;2227.20;;;;;;5072957;28;20027;-68
2021/04/24 00:25:03;;;;;;;24.92;14.02;;;103.30;2227.20;;;;;;5073223;28;20070;-68
2021/04/24 00:27:29;;;;;;;23.75;12.88;;;103.30;2227.20;;;;;;5056154;28;20032;-69
2021/04/24 00:29:55;;;;;;;20.45;11.38;;;103.30;2227.20;;;;;;5072881;28;20028;-72
2021/04/24 00:32:20;;;;;;;23.08;12.18;;;103.30;2227.20;;;;;;5073368;28;20016;-69
2021/04/24 00:34:46;;;;;;;23.02;11.65;;;103.20;2227.20;;;;;;5058798;28;20033;-69
2021/04/24 00:37:12;;;;;;;26.45;12.82;;;103.20;2227.20;;;;;;5073130;28;20028;-69
2021/04/24 00:39:38;;;;;;;27.95;12.55;;;103.10;2227.20;;;;;;5072590;28;20021;-68
2021/04/24 00:42:04;;;;;;;27.85;13.68;;;103.10;2227.20;;;;;;5073129;28;20031;-68
2021/04/24 00:44:30;;;;;;;26.52;14.88;;;103.00;2227.20;;;;;;5073442;28;20021;-68
2021/04/24 00:46:55;;;;;;;26.52;14.82;;;102.70;2227.20;;;;;;5072779;28;20024;-68
2021/04/24 00:49:21;;;;;;;32.63;18.48;;;102.60;2227.20;;;;;;5072516;28;20500;-69
2021/04/24 00:51:47;;;;;;;28.42;16.48;;;102.60;2227.20;;;;;;5072229;28;20033;-69
2021/04/24 00:54:13;;;;;;;30.73;16.38;;;102.70;2227.20;;;;;;5072867;28;20020;-68
2021/04/24 00:56:38;;;;;;;31.67;16.83;;;102.70;2227.20;;;;;;5054431;28;20020;-69
2021/04/24 00:59:04;;;;;;;32.95;18.65;;;102.80;2227.20;;;;;;5072568;28;20149;-68
2021/04/24 01:01:30;;;;;;;33.85;17.88;;;102.80;2227.20;;;;;;5054434;28;20186;-68
2021/04/24 01:03:56;;;;;;;35.15;18.23;;;102.80;2227.20;;;;;;5072643;28;20029;-68
2021/04/24 01:06:22;;;;;;;33.95;18.10;;;102.80;2227.20;;;;;;5072338;28;20024;-68
2021/04/24 01:08:48;;;;;;;37.67;18.95;;;102.80;2227.20;;;;;;5054059;28;20055;-69
2021/04/24 01:11:13;;;;;;;43.05;19.85;;;102.90;2227.20;;;;;;5072061;28;20042;-72
2021/04/24 01:13:39;;;;;;;29.88;15.98;;;102.90;2227.20;;;;;;5072303;28;20066;-68
2021/04/24 01:16:05;;;;;;;32.08;15.77;;;102.90;2227.20;;;;;;5072273;28;20109;-68
2021/04/24 01:18:31;;;;;;;38.03;18.42;;;102.90;2227.20;;;;;;5075487;28;20527;-67
2021/04/24 01:20:58;;;;;;;39.00;18.20;;;102.90;2227.20;;;;;;5071984;28;20020;-68
2021/04/24 01:23:25;;;;;;;32.15;17.80;;;102.90;2227.20;;;;;;5071924;28;20086;-68
2021/04/24 01:25:51;;;;;;;35.28;18.40;;;102.70;2227.20;;;;;;5071028;28;20354;-68
2021/04/24 01:28:17;;;;;;;34.75;18.30;;;102.70;2227.20;;;;;;5072539;28;20033;-67
2021/04/24 01:30:44;;;;;;;34.80;17.67;;;102.70;2227.20;;;;;;5071472;28;20025;-68
2021/04/24 01:33:12;;;;;;;34.50;17.75;;;102.70;2227.20;;;;;;5071822;28;20033;-69
2021/04/24 01:35:40;;;;;;;31.45;17.05;;;102.70;2227.20;;;;;;5071538;28;20024;-69
2021/04/24 01:38:07;;;;;;;32.58;16.88;;;102.60;2227.20;;;;;;5072279;28;20439;-67
2021/04/24 01:40:33;;;;;;;40.55;22.23;;;77.70;2227.20;;;;;;5071355;28;20389;-68
2021/04/24 01:43:01;;;;;;;51.95;26.80;;;77.50;2227.20;;;;;;5054122;28;20418;-68
2021/04/24 01:45:28;;;;;;;35.95;20.00;;;77.40;2227.20;;;;;;5071820;28;20099;-68
2021/04/24 01:47:54;;;;;;;32.47;18.80;;;77.40;2227.20;;;;;;5071666;28;20048;-69
2021/04/24 01:50:27;;;;;;;58.22;25.70;;;77.40;2227.20;;;;;;5071343;28;20059;-69
2021/04/24 01:52:54;;;;;;;29.25;16.90;;;77.40;2227.20;;;;;;5071388;28;20059;-69
2021/04/24 01:55:23;;;;;;;20.20;11.50;;;77.30;2227.20;;;;;;5071686;28;20031;-68
2021/04/24 01:57:51;;;;;;;24.85;12.02;;;77.20;2227.20;;;;;;5071148;28;20027;-67
2021/04/24 02:00:27;;;;;;;20.40;11.10;;;77.20;2227.20;;;;;;5071349;28;20078;-68
2021/04/24 02:02:53;;;;;;;18.30;10.25;;;77.10;2227.20;;;;;;5070674;28;20035;-68
2021/04/24 02:05:20;;;;;;;17.95;9.35;;;77.00;2227.20;;;;;;5071387;28;20036;-67
2021/04/24 02:07:57;;;;;;;16.33;9.13;;;77.00;2227.20;;;;;;5071209;28;20025;-72
2021/04/24 02:10:23;;;;;;;19.30;9.63;;;77.00;2227.20;;;;;;5070971;28;20033;-68
2021/04/24 02:12:50;;;;;;;15.23;8.73;;;77.00;2227.20;;;;;;5071051;28;20029;-68
2021/04/24 02:15:16;;;;;;;15.70;8.75;;;77.00;2227.20;;;;;;5071405;28;20100;-72
2021/04/24 02:17:42;;;;;;;16.60;8.77;;;77.10;2227.20;;;;;;5080168;28;20111;-68
2021/04/24 02:20:09;;;;;;;16.45;9.02;;;77.10;2227.20;;;;;;5075211;28;20611;-68
2021/04/24 02:22:34;;;;;;;15.30;9.23;;;77.10;2227.20;;;;;;5070828;28;20032;-68
2021/04/24 02:25:03;;;;;;;18.77;9.15;;;77.20;2227.20;;;;;;5071529;28;20389;-69
2021/04/24 02:27:29;;;;;;;18.55;9.10;;;77.20;2227.20;;;;;;5070933;28;20021;-68
2021/04/24 02:29:55;;;;;;;18.08;8.98;;;77.20;2227.20;;;;;;5070605;28;20082;-67
2021/04/24 02:32:31;;;;;;;17.52;9.50;;;77.20;2227.20;;;;;;5070687;28;20020;-68
2021/04/24 02:34:58;;;;;;;15.88;9.32;;;77.30;2227.20;;;;;;5070985;28;20024;-68
2021/04/24 02:37:24;;;;;;;15.10;9.57;;;77.30;2227.20;;;;;;5071072;28;20025;-72
2021/04/24 02:39:51;;;;;;;18.92;10.82;;;77.30;2227.20;;;;;;5070791;28;20059;-71
2021/04/24 02:42:20;;;;;;;17.63;10.50;;;77.30;2227.20;;;;;;5070818;28;20643;-69
2021/04/24 02:44:47;;;;;;;20.52;11.80;;;77.30;2227.20;;;;;;5071075;28;20028;-68
2021/04/24 02:47:13;;;;;;;20.27;11.82;;;77.30;2227.20;;;;;;5070807;28;20066;-68
2021/04/24 02:49:42;;;;;;;22.15;12.20;;;77.20;2227.20;;;;;;5070448;28;20016;-67
2021/04/24 02:52:09;;;;;;;24.20;12.52;;;77.20;2227.20;;;;;;5070425;28;20036;-69
2021/04/24 02:54:35;;;;;;;23.55;11.98;;;77.10;2227.20;;;;;;5070653;28;20397;-68
2021/04/24 02:57:01;;;;;;;23.85;12.13;;;77.00;2227.20;;;;;;5070705;28;20021;-68
2021/04/24 02:59:27;;;;;;;23.98;12.65;;;77.00;2227.20;;;;;;5070249;28;20082;-68
2021/04/24 03:01:54;;;;;;;24.20;11.50;;;77.10;2227.20;;;;;;5052551;28;20028;-68
2021/04/24 03:04:20;;;;;;;20.17;11.45;;;77.10;2227.20;;;;;;5070531;28;20044;-68
2021/04/24 03:06:46;;;;;;;22.40;11.82;;;77.20;2227.20;;;;;;5070497;28;20025;-69
2021/04/24 03:09:13;;;;;;;33.63;15.93;;;77.20;2227.20;;;;;;5070155;28;20035;-69
2021/04/24 03:11:39;;;;;;;25.63;12.02;;;77.20;2227.20;;;;;;5070199;28;20062;-69
2021/04/24 03:14:06;;;;;;;23.45;11.65;;;77.20;2227.20;;;;;;5067659;28;20033;-69
2021/04/24 03:16:32;;;;;;;23.13;11.18;;;77.20;2227.20;;;;;;5074217;28;20021;-68
2021/04/24 03:18:58;;;;;;;19.70;11.10;;;77.20;2227.20;;;;;;5081662;28;20034;-72
2021/04/24 03:21:26;;;;;;;22.90;11.27;;;77.20;2227.20;;;;;;5074228;28;20101;-73
2021/04/24 03:23:53;;;;;;;23.42;10.38;;;77.10;2227.20;;;;;;5074369;28;20025;-69
2021/04/24 03:26:19;;;;;;;21.30;10.20;;;77.10;2227.20;;;;;;5074637;28;20025;-68
2021/04/24 03:28:45;;;;;;;27.10;10.95;;;77.10;2227.20;;;;;;5073707;28;20024;-69
2021/04/24 03:31:11;;;;;;;22.25;10.80;;;77.10;2227.20;;;;;;5074130;28;20036;-67
2021/04/24 03:33:39;;;;;;;21.65;9.70;;;77.00;2227.20;;;;;;5058520;28;20107;-69
2021/04/24 03:36:05;;;;;;;21.65;10.40;;;77.00;2227.20;;;;;;5073614;28;20426;-68
2021/04/24 03:38:31;;;;;;;17.42;8.90;;;76.90;2227.20;;;;;;5073913;28;20034;-66
2021/04/24 03:40:57;;;;;;;19.33;9.20;;;76.90;2227.20;;;;;;5074129;28;20433;-69
2021/04/24 03:43:23;;;;;;;17.83;8.52;;;76.80;2227.20;;;;;;5074074;28;20454;-70
2021/04/24 03:45:48;;;;;;;16.70;8.32;;;52.10;2227.20;;;;;;5073841;28;20024;-68
2021/04/24 03:48:14;;;;;;;14.98;8.35;;;52.10;2227.20;;;;;;5073778;28;20424;-68
2021/04/24 03:50:40;;;;;;;14.38;8.00;;;52.00;2227.20;;;;;;5073481;28;20024;-68
2021/04/24 03:53:07;;;;;;;18.88;8.73;;;51.90;2227.20;;;;;;5073951;28;20407;-68
2021/04/24 03:55:32;;;;;;;19.75;8.88;;;51.90;2227.20;;;;;;5073868;28;20485;-68
2021/04/24 03:58:00;;;;;;;36.00;18.52;;;51.90;2227.20;;;;;;5073663;28;20025;-68
2021/04/24 04:00:30;;;;;;;87.38;33.60;;;51.90;2227.20;;;;;;5073775;28;20393;-68
2021/04/24 04:02:59;;;;;;;36.43;17.57;;;51.90;2227.20;;;;;;5073475;28;20033;-69
2021/04/24 04:05:30;;;;;;;17.73;9.07;;;52.00;2227.20;;;;;;5073837;28;20063;-68
2021/04/24 04:07:57;;;;;;;19.33;9.15;;;52.10;2227.20;;;;;;5073315;28;20033;-68
2021/04/24 04:10:24;;;;;;;19.48;9.27;;;76.80;2227.20;;;;;;5073657;28;20583;-68
2021/04/24 04:12:50;;;;;;;20.73;10.35;;;76.90;2227.20;;;;;;5073315;28;20537;-68
2021/04/24 04:15:18;;;;;;;25.38;10.27;;;77.00;2227.20;;;;;;5073913;28;20350;-71
2021/04/24 04:18:07;;;;;;;37.03;23.08;;;77.00;2227.20;;;;;;5082992;28;20087;-68
2021/04/24 04:20:34;;;;;;;22.65;13.82;;;77.00;2227.20;;;;;;5060945;28;20056;-70
2021/04/24 04:23:00;;;;;;;23.13;13.77;;;77.10;2227.20;;;;;;5073259;28;20063;-68
2021/04/24 04:25:26;;;;;;;33.10;19.75;;;77.20;2227.20;;;;;;5072821;28;20480;-68
2021/04/24 04:27:52;;;;;;;27.40;17.00;;;77.20;2227.20;;;;;;5073251;28;20297;-69
2021/04/24 04:30:20;;;;;;;44.40;22.65;;;77.20;2227.20;;;;;;5072845;28;20028;-68
2021/04/24 04:32:46;;;;;;;68.15;31.13;;;77.40;2227.20;;;;;;5072888;28;20021;-69
2021/04/24 04:35:14;;;;;;;26.20;13.93;;;77.60;2227.20;;;;;;5073193;28;20070;-68
2021/04/24 04:37:41;;;;;;;22.40;10.50;;;102.50;2227.20;;;;;;5072975;28;20106;-68
2021/04/24 04:40:08;;;;;;;18.95;9.82;;;102.60;2227.20;;;;;;5072685;28;20047;-68
2021/04/24 04:42:34;;;;;;;20.08;9.93;;;102.70;2227.20;;;;;;5072788;28;20008;-69
2021/04/24 04:45:00;;;;;;;21.27;10.43;;;103.00;2227.20;;;;;;5072986;28;20020;-68
2021/04/24 04:47:26;;;;;;;19.48;10.07;;;103.30;2227.20;;;;;;5072981;28;20093;-69
2021/04/24 04:49:52;;;;;;;18.88;9.88;;;128.10;2252.80;;;;;;5072513;28;20493;-71
2021/04/24 04:52:18;;;;;;;18.73;9.88;;;128.30;2252.80;;;;;;5072800;28;20048;-71
2021/04/24 04:54:44;;;;;;;18.88;9.45;;;128.80;2252.80;;;;;;5072451;28;20026;-68
2021/04/24 04:57:10;;;;;;;17.73;9.73;;;153.90;2252.80;;;;;;5072917;28;20028;-66
2021/04/24 04:59:36;;;;;;;17.52;8.98;;;154.40;2252.80;;;;;;5071917;28;20024;-65
2021/04/24 05:02:02;;;;;;;19.60;10.13;;;179.40;2252.80;;;;;;5072264;28;20033;-67
2021/04/24 05:04:27;;;;;;;18.90;10.77;;;179.90;2252.80;;;;;;5072101;28;20161;-69
2021/04/24 05:06:53;;;;;;;21.02;11.40;;;205.10;2252.80;;;;;;5072592;28;20082;-67
2021/04/24 05:09:21;;;;;;;20.50;10.60;;;205.70;2176.00;;;;;;5072130;28;20102;-67
2021/04/24 05:11:50;;;;;;;19.92;11.40;;;230.90;2099.20;;;;;;5072408;28;20028;-67
2021/04/24 05:14:17;;;;;;;23.77;11.52;;;256.30;2022.40;;;;;;5072132;28;20027;-66
2021/04/24 05:16:43;;;;;;;23.98;12.27;;;281.70;1920.00;;;;;;5072831;28;20013;-67
2021/04/24 05:19:09;;;;;;;23.92;12.73;;;282.10;1868.80;;;;;;5081315;28;20039;-67
2021/04/24 05:21:35;;;;;;;25.50;12.10;;;307.20;1817.60;;;;;;5071905;28;20029;-69
2021/04/24 05:24:02;;;;;;;19.77;11.88;;;307.80;1689.60;;;;;;5072290;28;20032;-67
2021/04/24 05:26:28;;;;;;;15.30;10.32;;;332.90;1664.00;;;;;;5072041;28;20028;-66
2021/04/24 05:28:53;;;;;;;19.90;11.50;;;333.40;1612.80;;;;;;5071697;28;20047;-68
2021/04/24 05:31:19;;;;;;;17.05;10.75;;;333.60;1587.20;;;;;;5071999;28;20016;-67
2021/04/24 05:33:45;;;;;;;15.40;11.10;;;358.60;1561.60;;;;;;5071451;28;20043;-70
2021/04/24 05:36:13;;;;;;;16.60;11.02;;;358.70;1536.00;;;;;;5072079;28;20020;-68
2021/04/24 05:38:39;;;;;;;20.73;12.48;;;358.80;1510.40;;;;;;5070758;28;20012;-68
2021/04/24 05:41:06;;;;;;;19.08;13.20;;;359.30;1510.40;;;;;;5071711;28;20473;-69
2021/04/24 05:43:32;;;;;;;19.65;12.20;;;384.20;1484.80;;;;;;5071635;28;20033;-69
2021/04/24 05:45:58;;;;;;;19.98;16.10;;;384.80;1459.20;;;;;;5071893;28;20027;-69
2021/04/24 05:48:23;;;;;;;19.15;15.38;;;384.20;1459.20;;;;;;5071746;28;20028;-68
2021/04/24 05:50:49;;;;;;;17.45;13.70;;;359.20;1484.80;;;;;;5070951;28;20037;-68
2021/04/24 05:53:15;;;;;;;15.02;12.25;;;384.10;1484.80;;;;;;5071652;28;20025;-68
2021/04/24 05:55:41;;;;;;;16.98;12.10;;;384.70;1433.60;;;;;;5071626;28;20036;-70
2021/04/24 05:58:06;;;;;;;15.13;10.63;;;384.70;1433.60;;;;;;5071530;28;20020;-69
2021/04/24 06:00:32;;;;;;;14.55;10.13;;;410.40;1408.00;;;;;;5070999;28;20031;-68
2021/04/24 06:02:58;;;;;;;15.32;11.45;;;435.60;1356.80;;;;;;5071421;28;20043;-69
2021/04/24 06:05:24;;;;;;;14.43;10.73;;;460.90;1331.20;;;;;;5071607;28;20048;-69
2021/04/24 06:07:50;;;;;;;15.57;10.73;;;461.50;1305.60;;;;;;5071617;28;20028;-69
2021/04/24 06:10:17;;;;;;;14.00;11.10;;;461.70;1228.80;;;;;;5070911;28;20025;-67
2021/04/24 06:12:47;;;;;;;14.15;9.93;;;486.80;1228.80;;;;;;5071483;28;20021;-69
2021/04/24 06:15:14;;;;;;;12.30;9.80;;;512.40;1177.60;;;;;;5071319;28;20078;-69
2021/04/24 06:17:41;;;;;;;15.18;10.10;;;512.90;1126.40;;;;;;5080011;28;20028;-69
2021/04/24 06:20:09;;;;;;;17.20;10.43;;;537.70;1152.00;;;;;;5072341;28;20090;-69
2021/04/24 06:22:36;;;;;;;16.48;11.20;;;537.90;1126.40;;;;;;5071076;28;20032;-70
2021/04/24 06:25:03;;;;;;;13.50;10.13;;;563.50;1126.40;;;;;;5070973;28;20322;-70
2021/04/24 06:27:28;;;;;;;16.80;9.85;;;588.90;1100.80;;;;;;5071131;28;20028;-69
2021/04/24 06:29:55;;;;;;;14.65;10.30;;;589.60;1049.60;;;;;;5062152;28;20075;-69
2021/04/24 06:32:21;;;;;;;17.50;10.52;;;614.40;1024.00;;;;;;5071156;28;20025;-68
2021/04/24 06:34:46;;;;;;;21.23;10.63;;;614.40;998.40;;;;;;5065107;28;20096;-68
2021/04/24 06:37:12;;;;;;;27.70;11.38;;;615.20;972.80;;;;;;5066119;28;20108;-69
2021/04/24 06:39:38;;;;;;;28.90;11.88;;;640.60;947.20;;;;;;5070324;28;20039;-70
2021/04/24 06:42:04;;;;;;;23.30;10.90;;;665.90;947.20;;;;;;5070754;28;20094;-71
2021/04/24 06:44:30;;;;;;;20.02;10.65;;;666.00;947.20;;;;;;5070455;28;20099;-65
2021/04/24 06:46:55;;;;;;;20.83;11.35;;;666.30;896.00;;;;;;5070675;28;20032;-70
2021/04/24 06:49:21;;;;;;;19.85;10.75;;;691.20;896.00;;;;;;5070295;28;20024;-67
2021/04/24 06:51:47;;;;;;;19.35;11.40;;;691.60;870.40;;;;;;5070318;28;20123;-67
2021/04/24 06:54:13;;;;;;;20.23;10.70;;;717.20;870.40;;;;;;5065126;28;20056;-68
2021/04/24 06:56:39;;;;;;;16.38;10.55;;;742.40;870.40;;;;;;5071053;28;20025;-67
2021/04/24 06:59:05;;;;;;;14.07;10.00;;;717.30;844.80;;;;;;5070539;28;20016;-70
2021/04/24 07:01:31;;;;;;;18.10;10.00;;;742.80;844.80;;;;;;5070825;28;20377;-67
2021/04/24 07:03:57;;;;;;;14.45;9.75;;;743.20;844.80;;;;;;5070839;28;20025;-66
2021/04/24 07:06:23;;;;;;;15.27;10.30;;;768.40;819.20;;;;;;5070811;28;20366;-67
2021/04/24 07:08:48;;;;;;;14.73;9.95;;;793.70;819.20;;;;;;5070699;28;20439;-67
2021/04/24 07:11:14;;;;;;;16.20;10.07;;;794.20;844.80;;;;;;5070708;28;20036;-66
2021/04/24 07:13:40;;;;;;;15.07;9.88;;;794.20;844.80;;;;;;5070965;28;20389;-67
2021/04/24 07:16:10;;;;;;;13.32;9.45;;;794.40;844.80;;;;;;5071025;28;20031;-71
2021/04/24 07:18:36;;;;;;;13.48;8.52;;;819.30;793.60;;;;;;5075542;28;20016;-68
2021/04/24 07:21:02;;;;;;;12.77;9.30;;;819.60;793.60;;;;;;5070323;28;20025;-68
2021/04/24 07:23:27;;;;;;;13.38;9.35;;;845.00;793.60;;;;;;5070498;28;20531;-68
2021/04/24 07:25:53;;;;;;;14.63;9.20;;;845.20;768.00;;;;;;5062097;28;20086;-68
2021/04/24 07:28:19;;;;;;;14.93;9.52;;;819.80;716.80;;;;;;5070838;28;20074;-68
2021/04/24 07:30:45;;;;;;;13.38;9.90;;;820.10;742.40;;;;;;5056774;28;20120;-68
2021/04/24 07:33:11;;;;;;;15.68;10.48;;;819.80;742.40;;;;;;5069775;28;20021;-68
2021/04/24 07:35:37;;;;;;;15.23;11.13;;;844.90;768.00;;;;;;5057096;28;20040;-67
2021/04/24 07:38:03;;;;;;;15.35;10.27;;;845.60;742.40;;;;;;5052191;28;20063;-72
2021/04/24 07:40:29;;;;;;;16.40;10.02;;;870.70;742.40;;;;;;5055455;28;20052;-73
2021/04/24 07:42:55;;;;;;;13.93;10.30;;;870.50;742.40;;;;;;5055696;28;20063;-67
2021/04/24 07:45:21;;;;;;;13.75;9.65;;;870.70;716.80;;;;;;5062602;28;20143;-69
2021/04/24 07:47:48;;;;;;;16.48;9.68;;;845.40;742.40;;;;;;5070656;28;20090;-69
2021/04/24 07:50:18;;;;;;;14.23;9.40;;;845.70;742.40;;;;;;5069686;28;20484;-68
2021/04/24 07:52:44;;;;;;;12.95;9.02;;;845.60;742.40;;;;;;5066820;28;20053;-70
2021/04/24 07:55:11;;;;;;;13.77;8.55;;;870.70;742.40;;;;;;5067083;28;20056;-70
2021/04/24 07:57:37;;;;;;;15.43;9.23;;;896.10;691.20;;;;;;5055683;28;20079;-69
2021/04/24 08:00:06;;;;;;;13.70;8.43;;;871.30;691.20;;;;;;5052550;28;20021;-68
2021/04/24 08:02:31;;;;;;;14.90;8.90;;;871.30;691.20;;;;;;5070219;28;20485;-68
2021/04/24 08:04:57;;;;;;;12.40;8.07;;;896.10;691.20;;;;;;5072215;28;20041;-69
2021/04/24 08:07:23;;;;;;;15.32;8.82;;;871.30;691.20;;;;;;5071196;28;20039;-68
2021/04/24 08:09:48;;;;;;;12.23;8.43;;;870.90;691.20;;;;;;5070293;28;20428;-68
2021/04/24 08:12:14;;;;;;;12.85;8.27;;;845.10;742.40;;;;;;5073393;28;20032;-69
2021/04/24 08:14:40;;;;;;;13.98;8.55;;;845.70;716.80;;;;;;5073371;28;20401;-72
2021/04/24 08:17:06;;;;;;;15.27;8.63;;;870.90;716.80;;;;;;5055496;28;20304;-69
2021/04/24 08:19:31;;;;;;;13.95;8.00;;;896.00;691.20;;;;;;5072881;28;20025;-69
2021/04/24 08:21:58;;;;;;;14.48;7.80;;;896.20;691.20;;;;;;5072940;28;20047;-68
2021/04/24 08:24:24;;;;;;;12.57;7.68;;;896.10;691.20;;;;;;5073113;28;20028;-68
2021/04/24 08:26:50;;;;;;;13.57;7.47;;;896.30;665.60;;;;;;5072581;28;20016;-69
2021/04/24 08:29:16;;;;;;;12.65;7.45;;;870.70;691.20;;;;;;5072767;28;20040;-70
2021/04/24 08:31:43;;;;;;;11.35;6.70;;;845.50;716.80;;;;;;5072869;28;20016;-68
2021/04/24 08:34:09;;;;;;;12.75;7.00;;;819.30;742.40;;;;;;5071268;28;20111;-69
2021/04/24 08:36:35;;;;;;;10.70;6.90;;;743.20;768.00;;;;;;5062085;28;20035;-70
2021/04/24 08:39:02;;;;;;;10.75;6.25;;;717.70;793.60;;;;;;5072378;28;20020;-67
2021/04/24 08:41:28;;;;;;;12.48;6.95;;;691.80;742.40;;;;;;5059357;28;20041;-68
2021/04/24 08:43:56;;;;;;;11.20;5.50;;;666.50;793.60;;;;;;5041425;28;20108;-67
2021/04/24 08:46:24;;;;;;;12.00;6.28;;;665.90;819.20;;;;;;5068855;28;20151;-67
2021/04/24 08:48:51;;;;;;;13.75;6.05;;;640.40;819.20;;;;;;5053988;28;20025;-67
2021/04/24 08:51:18;;;;;;;11.13;5.78;;;615.10;844.80;;;;;;5055801;28;20107;-67
2021/04/24 08:53:44;;;;;;;11.30;6.10;;;614.80;819.20;;;;;;5055258;28;20029;-67
2021/04/24 08:56:10;;;;;;;12.25;6.63;;;589.70;896.00;;;;;;5068870;28;20043;-68
2021/04/24 08:58:35;;;;;;;11.32;6.40;;;589.40;896.00;;;;;;5067497;28;20109;-67
2021/04/24 09:01:01;;;;;;;11.00;6.75;;;589.60;896.00;;;;;;5056043;28;20025;-66
2021/04/24 09:03:27;;;;;;;12.90;6.60;;;589.50;921.60;;;;;;5054035;28;20040;-70
2021/04/24 09:05:54;;;;;;;11.40;6.85;;;589.50;896.00;;;;;;5069568;28;20078;-67
2021/04/24 09:08:30;;;;;;;10.52;6.70;;;589.40;921.60;;;;;;5072372;28;20480;-67
2021/04/24 09:11:04;;;;;;;13.32;6.95;;;589.40;921.60;;;;;;5065487;28;20053;-70
2021/04/24 09:13:30;;;;;;;13.95;6.95;;;589.30;921.60;;;;;;5072196;28;20415;-68
2021/04/24 09:15:57;;;;;;;13.80;6.70;;;589.20;947.20;;;;;;5072360;28;20016;-70
2021/04/24 09:18:25;;;;;;;11.70;6.93;;;564.10;947.20;;;;;;5080976;28;20021;-69
2021/04/24 09:20:59;;;;;;;11.25;6.40;;;563.20;947.20;;;;;;5072081;28;20063;-70
2021/04/24 09:23:31;;;;;;;12.48;6.65;;;563.70;972.80;;;;;;5071912;28;20103;-69
2021/04/24 09:25:59;;;;;;;12.10;6.28;;;588.80;947.20;;;;;;5072500;28;20016;-69
2021/04/24 09:28:26;;;;;;;10.07;5.70;;;563.60;921.60;;;;;;5071812;28;20028;-70
2021/04/24 09:30:53;;;;;;;10.40;5.38;;;563.80;921.60;;;;;;5053867;28;20024;-71
2021/04/24 09:33:18;;;;;;;9.57;5.40;;;563.80;947.20;;;;;;5054025;28;20035;-68
2021/04/24 09:35:48;;;;;;;9.00;5.10;;;563.90;921.60;;;;;;5063507;28;20037;-68
2021/04/24 09:38:21;;;;;;;8.33;5.50;;;563.80;921.60;;;;;;5067643;28;20028;-70
2021/04/24 09:41:11;;;;;;;9.07;5.78;;;563.80;921.60;;;;;;5068981;28;20292;-68
2021/04/24 09:44:10;;;;;;;9.30;4.90;;;563.70;896.00;;;;;;5072161;28;20103;-68
2021/04/24 09:46:53;;;;;;;8.30;4.68;;;564.00;896.00;;;;;;5064652;28;20461;-67
2021/04/24 09:49:29;;;;;;;9.85;5.10;;;564.10;921.60;;;;;;5071720;28;20055;-69
2021/04/24 09:52:03;;;;;;;10.73;4.88;;;588.80;896.00;;;;;;5059492;28;20048;-69
2021/04/24 09:54:41;;;;;;;9.52;4.97;;;588.90;921.60;;;;;;5057657;28;20031;-69
2021/04/24 09:57:15;;;;;;;8.75;4.70;;;563.90;896.00;;;;;;5067411;28;20556;-71
2021/04/24 10:00:03;;;;;;;8.85;4.97;;;588.80;921.60;;;;;;5071262;28;20031;-71
2021/04/24 10:02:41;;;;;;;9.35;5.25;;;564.10;921.60;;;;;;5064790;28;20154;-69
2021/04/24 10:05:15;;;;;;;9.20;4.90;;;563.40;921.60;;;;;;5069913;28;20024;-70
2021/04/24 10:07:43;;;;;;;9.57;5.20;;;563.60;947.20;;;;;;5071301;28;20032;-68
2021/04/24 10:10:12;;;;;;;11.10;4.90;;;563.70;921.60;;;;;;5066655;28;20021;-67
2021/04/24 10:12:38;;;;;;;7.90;4.78;;;564.10;947.20;;;;;;5063966;28;20025;-67
2021/04/24 10:15:06;;;;;;;12.50;5.75;;;589.00;921.60;;;;;;5071129;28;20023;-68
2021/04/24 10:17:32;;;;;;;8.93;5.38;;;588.90;947.20;;;;;;5078859;28;20427;-70
2021/04/24 10:19:59;;;;;;;9.50;5.00;;;589.10;921.60;;;;;;5065130;28;20021;-69
2021/04/24 10:22:26;;;;;;;9.40;5.30;;;588.90;921.60;;;;;;5057953;28;20025;-69
2021/04/24 10:24:52;;;;;;;9.93;5.32;;;588.90;947.20;;;;;;5055924;28;20020;-70
2021/04/24 10:27:20;;;;;;;9.65;5.65;;;589.00;921.60;;;;;;5065092;28;20013;-69
2021/04/24 10:29:47;;;;;;;7.97;5.00;;;589.10;921.60;;;;;;5070403;28;20049;-70
2021/04/24 10:32:14;;;;;;;8.23;4.60;;;588.90;921.60;;;;;;5069762;28;20059;-69
2021/04/24 10:34:41;;;;;;;10.02;5.05;;;588.80;921.60;;;;;;5070896;28;20028;-68
2021/04/24 10:37:07;;;;;;;9.40;5.40;;;588.90;947.20;;;;;;5070740;28;20192;-68
2021/04/24 10:39:36;;;;;;;11.80;5.95;;;589.10;947.20;;;;;;5066292;28;20035;-70
2021/04/24 10:42:22;;;;;;;9.93;5.35;;;588.90;972.80;;;;;;5038795;28;20062;-64
2021/04/24 10:44:52;;;;;;;9.82;5.47;;;588.90;947.20;;;;;;5070491;28;20024;-65
2021/04/24 10:47:53;;;;;;;10.32;4.95;;;588.90;947.20;;;;;;5071624;28;20088;-68
2021/04/24 10:50:21;;;;;;;9.82;5.25;;;589.10;921.60;;;;;;5069015;28;20052;-70
2021/04/24 10:52:48;;;;;;;9.07;4.97;;;589.20;947.20;;;;;;5069360;28;20496;-67
2021/04/24 10:55:17;;;;;;;10.32;5.20;;;588.80;972.80;;;;;;5069878;28;20086;-66
2021/04/24 10:57:45;;;;;;;8.70;4.93;;;588.80;947.20;;;;;;5071096;28;20089;-68
2021/04/24 11:00:11;;;;;;;9.57;5.32;;;589.00;947.20;;;;;;5070905;28;20520;-66
2021/04/24 11:02:52;;;;;;;8.48;5.03;;;588.80;921.60;;;;;;5070920;28;20020;-66
2021/04/24 11:05:35;;;;;;;9.80;5.65;;;589.00;947.20;;;;;;5066019;28;20052;-68
2021/04/24 11:08:22;;;;;;;9.95;5.68;;;589.10;972.80;;;;;;5071027;28;20020;-65
2021/04/24 11:10:55;;;;;;;8.88;5.28;;;589.10;947.20;;;;;;5070705;28;20036;-69
2021/04/24 11:13:23;;;;;;;9.25;4.68;;;589.20;921.60;;;;;;5069465;28;20158;-67
2021/04/24 11:15:49;;;;;;;7.05;3.63;;;589.30;947.20;;;;;;5070569;28;20044;-69
2021/04/24 11:18:16;;;;;;;8.13;4.10;;;589.30;921.60;;;;;;5070604;28;20032;-67
2021/04/24 11:20:47;;;;;;;6.55;3.65;;;589.20;896.00;;;;;;5069991;28;20021;-67
2021/04/24 11:23:32;;;;;;;6.78;4.20;;;589.40;896.00;;;;;;5070393;28;20017;-67
2021/04/24 11:26:01;;;;;;;8.20;4.15;;;589.10;921.60;;;;;;5064800;28;20021;-69
2021/04/24 11:28:28;;;;;;;6.65;3.70;;;589.10;896.00;;;;;;5068090;28;20519;-65
2021/04/24 11:30:58;;;;;;;8.88;4.80;;;589.20;921.60;;;;;;5066821;28;20512;-66
2021/04/24 11:33:44;;;;;;;7.80;4.80;;;588.90;921.60;;;;;;5064991;28;20101;-73
2021/04/24 11:36:16;;;;;;;7.90;4.70;;;564.10;921.60;;;;;;5054592;28;20039;-68
2021/04/24 11:39:15;;;;;;;9.05;4.50;;;564.00;947.20;;;;;;5074114;28;20051;-69
2021/04/24 11:41:44;;;;;;;7.03;4.18;;;564.10;947.20;;;;;;5071375;28;20032;-72
2021/04/24 11:44:21;;;;;;;6.13;4.13;;;563.70;896.00;;;;;;5070605;28;20031;-69
2021/04/24 11:46:53;;;;;;;7.03;3.70;;;563.60;947.20;;;;;;5073185;28;20505;-73
2021/04/24 11:49:24;;;;;;;6.90;4.07;;;563.70;947.20;;;;;;5063306;28;20363;-70
2021/04/24 11:51:55;;;;;;;7.20;4.18;;;563.80;921.60;;;;;;5073764;28;20444;-70
2021/04/24 11:54:39;;;;;;;;;;;563.60;947.20;;;;;;5074057;28;20033;-75
2021/04/24 11:57:19;;;;;;;7.68;4.68;;;563.50;947.20;;;;;;5073532;28;20296;-70
2021/04/24 11:59:47;;;;;;;6.35;4.15;;;563.60;972.80;;;;;;5071694;28;20040;-68
2021/04/24 12:02:21;;;;;;;13.10;10.38;;;563.80;947.20;;;;;;5073252;28;20036;-68
2021/04/24 12:04:54;;;;;;;7.93;4.63;;;563.80;972.80;;;;;;5073524;28;20059;-68
2021/04/24 12:07:21;;;;;;;8.57;4.88;;;563.80;947.20;;;;;;5073541;28;20078;-71
2021/04/24 12:09:48;;;;;;;9.55;4.93;;;563.80;947.20;;;;;;5072887;28;20016;-70
2021/04/24 12:12:15;;;;;;;8.05;4.88;;;563.80;972.80;;;;;;5073024;28;20024;-72
2021/04/24 12:14:41;;;;;;;6.82;4.47;;;563.60;972.80;;;;;;5073447;28;20021;-68
2021/04/24 12:17:09;;;;;;;6.35;4.55;;;563.50;972.80;;;;;;5066068;28;20542;-67